Time;durP1;ratioP1;P1;durP2;ratioP2;P2;SDS_P1;SDS_P2;PMS_P1;PMS_P2;Temp;Humidity;BMP_temperature;BMP_pressure;BME280_temperature;BME280_humidity;BME280_pressure;Samples;Min_cycle;Max_cycle;Signal;HPM_P1;HPM_P2
2023/12/03 00:00:16;;;;;;;64.00;54.10;;;;;;;-3.54;100.00;97229.65;109596;1286;22212;-81
2023/12/03 00:03:04;;;;;;;76.70;60.30;;;;;;;-3.57;100.00;97234.06;109479;1289;23213;-83
2023/12/03 00:05:33;;;;;;;66.70;56.30;;;;;;;-3.52;100.00;97239.71;109649;1290;22142;-83
2023/12/03 00:08:02;;;;;;;61.30;52.00;;;;;;;-3.50;100.00;97240.17;109637;1290;22181;-83
2023/12/03 00:10:30;;;;;;;58.20;49.90;;;;;;;-3.53;100.00;97239.00;109452;1281;22276;-81
2023/12/03 00:12:58;;;;;;;63.60;51.40;;;;;;;-3.57;100.00;97237.23;109588;1283;22229;-83
2023/12/03 00:15:26;;;;;;;61.30;49.80;;;;;;;-3.56;100.00;97242.64;109578;1276;22235;-82
2023/12/03 00:17:54;;;;;;;53.30;45.50;;;;;;;-3.55;100.00;97246.00;109612;1282;22992;-83
2023/12/03 00:20:22;;;;;;;54.00;46.30;;;;;;;-3.56;100.00;97244.40;109614;1290;22450;-84
2023/12/03 00:22:51;;;;;;;54.70;46.00;;;;;;;-3.60;100.00;97244.65;109604;1279;22762;-83
2023/12/03 00:25:18;;;;;;;56.90;47.50;;;;;;;-3.65;100.00;97243.70;109610;1282;22285;-82
2023/12/03 00:27:46;;;;;;;51.30;45.70;;;;;;;-3.63;100.00;97245.38;109628;1283;22235;-82
2023/12/03 00:30:14;;;;;;;59.70;53.20;;;;;;;-3.61;100.00;97255.99;109600;1282;22239;-82
2023/12/03 00:32:43;;;;;;;60.40;53.20;;;;;;;-3.62;100.00;97257.48;109596;1290;22153;-83
2023/12/03 00:35:12;;;;;;;64.80;54.20;;;;;;;-3.64;100.00;97261.41;109621;1277;23030;-83
2023/12/03 00:37:40;;;;;;;60.60;51.60;;;;;;;-3.64;100.00;97273.25;109605;1290;22252;-84
2023/12/03 00:40:08;;;;;;;62.20;51.40;;;;;;;-3.66;100.00;97273.84;109695;1282;22269;-85
2023/12/03 00:42:36;;;;;;;61.10;52.80;;;;;;;-3.67;100.00;97273.25;109577;1290;22308;-85
2023/12/03 00:45:05;;;;;;;58.30;50.80;;;;;;;-3.65;100.00;97280.61;109608;1274;22215;-85
2023/12/03 00:47:33;;;;;;;65.70;54.80;;;;;;;-3.63;100.00;97282.65;109600;1283;22242;-85
2023/12/03 00:50:01;;;;;;;59.60;52.70;;;;;;;-3.69;100.00;97284.66;109593;1282;22207;-83
2023/12/03 00:52:29;;;;;;;63.90;54.90;;;;;;;-3.67;100.00;97283.63;109585;1282;22214;-86
2023/12/03 00:54:57;;;;;;;63.10;54.30;;;;;;;-3.64;100.00;97290.96;109586;1283;22345;-82
2023/12/03 00:57:25;;;;;;;66.90;57.80;;;;;;;-3.65;100.00;97297.98;109607;1276;22247;-83
2023/12/03 00:59:53;;;;;;;75.50;62.20;;;;;;;-3.61;100.00;97302.51;109690;1282;22744;-83
2023/12/03 01:02:21;;;;;;;73.40;60.00;;;;;;;-3.65;100.00;97303.53;109771;1286;22132;-84
2023/12/03 01:04:50;;;;;;;73.40;62.80;;;;;;;-3.63;100.00;97299.98;109626;1282;22208;-84
2023/12/03 01:07:18;;;;;;;75.60;63.00;;;;;;;-3.63;100.00;97303.35;109605;1283;23088;-86
2023/12/03 01:09:46;;;;;;;71.00;63.20;;;;;;;-3.60;100.00;97311.81;109769;1290;22325;-82
2023/12/03 01:12:14;;;;;;;74.90;66.70;;;;;;;-3.61;100.00;97316.20;109648;1282;22260;-86
2023/12/03 01:14:42;;;;;;;85.70;71.20;;;;;;;-3.61;100.00;97322.60;109687;1279;22314;-84
2023/12/03 01:17:10;;;;;;;81.70;69.30;;;;;;;-3.60;100.00;97329.67;109686;1282;22227;-85
2023/12/03 01:19:38;;;;;;;73.40;65.50;;;;;;;-3.60;100.00;97331.84;109473;1282;171619;-85
2023/12/03 01:22:06;;;;;;;82.70;71.40;;;;;;;-3.58;100.00;97328.04;109610;1282;22233;-85
2023/12/03 01:24:34;;;;;;;78.80;69.00;;;;;;;-3.54;100.00;97326.66;109585;1275;22346;-83
2023/12/03 01:27:04;;;;;;;79.60;71.20;;;;;;;-3.52;100.00;97328.56;109602;1290;22294;-84
2023/12/03 01:29:33;;;;;;;90.70;71.30;;;;;;;-3.56;100.00;97329.46;109575;1277;22417;-84
2023/12/03 01:32:01;;;;;;;74.80;66.80;;;;;;;-3.59;100.00;97336.79;109458;1290;22324;-84
2023/12/03 01:34:29;;;;;;;75.70;67.70;;;;;;;-3.59;100.00;97345.22;109603;1290;22579;-85
2023/12/03 01:36:57;;;;;;;81.60;70.60;;;;;;;-3.54;100.00;97356.31;109544;1274;22373;-84
2023/12/03 01:39:25;;;;;;;87.60;74.20;;;;;;;-3.51;100.00;97360.92;109600;1283;22235;-82
2023/12/03 01:41:53;;;;;;;90.80;75.00;;;;;;;-3.53;100.00;97371.56;109555;1282;22131;-84
2023/12/03 01:44:21;;;;;;;83.80;74.30;;;;;;;-3.58;100.00;97366.96;109561;1290;22894;-84
2023/12/03 01:46:53;;;;;;;78.00;69.30;;;;;;;-3.58;100.00;97368.02;109594;1275;22372;-85
2023/12/03 01:49:21;;;;;;;82.50;71.20;;;;;;;-3.54;100.00;97371.98;109622;1277;22204;-86
2023/12/03 01:51:50;;;;;;;78.40;70.20;;;;;;;-3.49;100.00;97376.46;109610;1282;22238;-85
2023/12/03 01:54:19;;;;;;;73.00;65.20;;;;;;;-3.57;100.00;97377.31;109602;1279;22843;-85
2023/12/03 01:56:48;;;;;;;68.10;61.40;;;;;;;-3.58;100.00;97378.91;109682;1286;22157;-84
2023/12/03 01:59:16;;;;;;;66.70;59.90;;;;;;;-3.59;100.00;97388.36;109710;1282;22299;-84
2023/12/03 02:01:44;;;;;;;61.90;55.80;;;;;;;-3.67;100.00;97393.77;109580;1283;22434;-85
2023/12/03 02:04:12;;;;;;;59.30;53.60;;;;;;;-3.72;100.00;97391.80;109438;1290;22367;-84
2023/12/03 02:06:40;;;;;;;60.30;54.20;;;;;;;-3.71;100.00;97398.84;109584;1282;23440;-86
2023/12/03 02:09:08;;;;;;;59.60;54.00;;;;;;;-3.74;100.00;97402.10;109576;1282;22224;-86
2023/12/03 02:11:36;;;;;;;56.60;51.20;;;;;;;-3.78;100.00;97407.33;109599;1276;22245;-85
2023/12/03 02:14:04;;;;;;;53.50;48.50;;;;;;;-3.88;100.00;97403.05;109587;1277;22130;-86
2023/12/03 02:16:34;;;;;;;51.10;46.30;;;;;;;-3.96;100.00;97410.55;109582;1287;22424;-87
2023/12/03 02:19:03;;;;;;;52.70;47.60;;;;;;;-4.00;100.00;97412.69;109589;1283;23506;-84
2023/12/03 02:21:31;;;;;;;54.60;49.40;;;;;;;-4.04;100.00;97421.52;109576;1282;22226;-85
2023/12/03 02:23:59;;;;;;;56.50;51.30;;;;;;;-4.05;100.00;97425.29;109602;1278;22245;-85
2023/12/03 02:26:28;;;;;;;50.60;45.70;;;;;;;-4.06;100.00;97438.66;109597;1283;22203;-86
2023/12/03 02:28:55;;;;;;;48.30;43.70;;;;;;;-4.09;100.00;97446.50;109538;1277;22235;-84
2023/12/03 02:31:25;;;;;;;46.20;41.90;;;;;;;-4.10;100.00;97446.88;109584;1290;22294;-85
2023/12/03 02:34:09;;;;;;;45.10;40.90;;;;;;;-4.11;100.00;97454.58;109611;1282;22188;-86
2023/12/03 02:36:38;;;;;;;45.30;41.10;;;;;;;-4.15;100.00;97455.10;109594;1290;22126;-86
2023/12/03 02:39:06;;;;;;;47.60;43.30;;;;;;;-4.15;100.00;97454.04;109540;1280;22366;-86
2023/12/03 02:41:34;;;;;;;49.90;45.40;;;;;;;-4.17;100.00;97469.03;109495;1283;22961;-85
2023/12/03 02:44:02;;;;;;;46.70;42.60;;;;;;;-4.18;100.00;97476.40;109524;1290;23075;-86
2023/12/03 02:46:30;;;;;;;43.00;38.80;;;;;;;-4.17;100.00;97482.55;109614;1282;22374;-83
2023/12/03 02:48:58;;;;;;;39.80;36.10;;;;;;;-4.17;100.00;97485.74;109605;1286;22316;-86
2023/12/03 02:51:26;;;;;;;40.60;36.60;;;;;;;-4.15;100.00;97492.47;109586;1290;22817;-85
2023/12/03 02:53:54;;;;;;;41.00;37.20;;;;;;;-4.17;100.00;97498.02;109604;1283;22287;-85
2023/12/03 02:56:22;;;;;;;36.60;33.30;;;;;;;-4.18;100.00;97503.08;109601;1282;22246;-87
2023/12/03 02:58:50;;;;;;;33.80;30.70;;;;;;;-4.17;100.00;97506.55;109694;1290;22222;-88
2023/12/03 03:01:18;;;;;;;34.00;30.90;;;;;;;-4.16;100.00;97505.45;109581;1290;22191;-87
2023/12/03 03:03:46;;;;;;;35.50;32.30;;;;;;;-4.19;100.00;97506.53;109491;1285;23077;-87
2023/12/03 03:06:15;;;;;;;33.60;30.60;;;;;;;-4.23;100.00;97515.74;109260;1286;23061;-88
2023/12/03 03:08:43;;;;;;;32.40;29.50;;;;;;;-4.26;100.00;97519.89;109603;1283;22740;-88
2023/12/03 03:11:11;;;;;;;35.60;32.20;;;;;;;-4.24;100.00;97523.36;109600;1276;22242;-87
2023/12/03 03:13:39;;;;;;;35.20;32.00;;;;;;;-4.27;100.00;97525.68;109593;1282;22142;-88
2023/12/03 03:16:07;;;;;;;34.40;31.20;;;;;;;-4.30;100.00;97528.05;109604;1274;22234;-86
2023/12/03 03:18:35;;;;;;;32.50;29.50;;;;;;;-4.28;100.00;97526.74;109671;1286;23191;-86
2023/12/03 03:21:04;;;;;;;33.00;29.90;;;;;;;-4.28;100.00;97531.97;109602;1282;22983;-87
2023/12/03 03:23:32;;;;;;;37.20;33.90;;;;;;;-4.30;100.00;97530.15;109609;1276;22111;-88
2023/12/03 03:25:59;;;;;;;35.50;32.30;;;;;;;-4.36;100.00;97534.30;109614;1282;22230;-85
2023/12/03 03:28:28;;;;;;;35.30;31.70;;;;;;;-4.39;100.00;97540.70;109600;1283;22270;-86
2023/12/03 03:30:56;;;;;;;32.20;29.00;;;;;;;-4.42;100.00;97544.23;109593;1282;22321;-84
2023/12/03 03:33:24;;;;;;;31.20;28.40;;;;;;;-4.41;100.00;97545.85;109597;1283;22207;-85
2023/12/03 03:35:52;;;;;;;32.60;29.70;;;;;;;-4.39;100.00;97547.54;109600;1283;22161;-85
2023/12/03 03:38:20;;;;;;;31.60;28.90;;;;;;;-4.38;100.00;97557.67;109596;1286;22234;-84
2023/12/03 03:40:48;;;;;;;28.00;25.40;;;;;;;-4.39;100.00;97565.30;109615;1283;22127;-85
2023/12/03 03:43:16;;;;;;;27.30;24.90;;;;;;;-4.41;100.00;97566.16;109633;1290;22920;-85
2023/12/03 03:45:44;;;;;;;27.20;24.70;;;;;;;-4.40;100.00;97564.65;109589;1286;23122;-85
2023/12/03 03:48:13;;;;;;;28.80;26.20;;;;;;;-4.41;100.00;97568.38;109612;1282;22962;-87
2023/12/03 03:50:41;;;;;;;28.20;25.80;;;;;;;-4.45;100.00;97567.59;109605;1286;22235;-85
2023/12/03 03:53:09;;;;;;;27.70;25.20;;;;;;;-4.48;100.00;97565.23;109603;1283;22293;-86
2023/12/03 03:55:37;;;;;;;26.50;24.20;;;;;;;-4.44;100.00;97571.67;109547;1283;22249;-85
2023/12/03 03:58:04;;;;;;;26.50;24.20;;;;;;;-4.43;100.00;97570.54;109599;1286;22218;-85
2023/12/03 04:00:32;;;;;;;28.90;26.50;;;;;;;-4.46;100.00;97569.95;109591;1282;22214;-86
2023/12/03 04:03:01;;;;;;;27.30;25.00;;;;;;;-4.48;100.00;97572.22;109610;1278;22304;-85
2023/12/03 04:05:29;;;;;;;29.20;26.60;;;;;;;-4.50;100.00;97575.59;109579;1283;22836;-88
2023/12/03 04:07:57;;;;;;;28.30;25.80;;;;;;;-4.49;100.00;97573.77;109589;1279;22212;-87
2023/12/03 04:10:25;;;;;;;27.50;25.20;;;;;;;-4.48;100.00;97573.14;109612;1286;22237;-85
2023/12/03 04:12:53;;;;;;;27.80;25.40;;;;;;;-4.49;100.00;97573.44;109607;1282;22215;-86
2023/12/03 04:15:21;;;;;;;26.10;23.80;;;;;;;-4.56;100.00;97568.98;109649;1283;22238;-85
2023/12/03 04:17:49;;;;;;;24.70;22.50;;;;;;;-4.56;100.00;97571.61;109609;1279;22360;-88
2023/12/03 04:20:18;;;;;;;23.30;21.20;;;;;;;-4.58;100.00;97578.86;109612;1279;22342;-87
2023/12/03 04:22:46;;;;;;;25.90;23.60;;;;;;;-4.61;100.00;97578.64;109622;1282;22239;-86
2023/12/03 04:25:14;;;;;;;26.30;23.90;;;;;;;-4.66;100.00;97579.06;109501;1285;22817;-88
2023/12/03 04:27:42;;;;;;;22.70;20.70;;;;;;;-4.65;100.00;97580.35;109600;1282;22180;-88
2023/12/03 04:30:10;;;;;;;26.00;23.60;;;;;;;-4.59;100.00;97583.44;109607;1283;23260;-87
2023/12/03 04:32:38;;;;;;;24.10;22.00;;;;;;;-4.60;100.00;97587.53;109589;1286;22958;-87
2023/12/03 04:35:08;;;;;;;24.20;22.00;;;;;;;-4.62;100.00;97588.30;109608;1282;22203;-88
2023/12/03 04:37:36;;;;;;;24.80;22.70;;;;;;;-4.66;100.00;97595.20;109595;1286;22215;-87
2023/12/03 04:40:04;;;;;;;24.40;22.20;;;;;;;-4.67;100.00;97594.19;109581;1284;22319;-88
2023/12/03 04:42:32;;;;;;;25.70;23.40;;;;;;;-4.64;100.00;97599.95;109589;1277;22200;-89
2023/12/03 04:45:00;;;;;;;25.00;22.80;;;;;;;-4.65;100.00;97605.98;109610;1267;22198;-87
2023/12/03 04:47:29;;;;;;;24.40;22.40;;;;;;;-4.68;100.00;97604.07;109587;1286;22176;-86
2023/12/03 04:49:57;;;;;;;23.70;21.60;;;;;;;-4.71;100.00;97602.54;109884;1286;22126;-85
2023/12/03 04:52:24;;;;;;;23.60;21.60;;;;;;;-4.71;100.00;97603.63;109882;1283;22201;-82
2023/12/03 04:54:53;;;;;;;22.00;20.10;;;;;;;-4.70;100.00;97607.67;109626;1290;22256;-86
2023/12/03 04:57:21;;;;;;;25.70;23.50;;;;;;;-4.70;100.00;97609.05;109623;1290;22184;-86
2023/12/03 04:59:49;;;;;;;25.20;23.00;;;;;;;-4.70;100.00;97617.79;109622;1283;22393;-85
2023/12/03 05:02:17;;;;;;;26.60;24.30;;;;;;;-4.70;100.00;97618.23;109687;1290;22302;-84
2023/12/03 05:04:45;;;;;;;25.90;23.60;;;;;;;-4.70;100.00;97614.91;109596;1284;22224;-83
2023/12/03 05:07:13;;;;;;;24.20;22.00;;;;;;;-4.70;100.00;97614.09;109610;1274;22678;-84
2023/12/03 05:09:41;;;;;;;22.50;20.60;;;;;;;-4.70;100.00;97620.93;109561;1290;22409;-84
2023/12/03 05:12:09;;;;;;;25.50;23.20;;;;;;;-4.71;100.00;97620.61;109522;1282;22279;-84
2023/12/03 05:14:37;;;;;;;27.00;24.70;;;;;;;-4.72;100.00;97622.48;109574;1290;22997;-83
2023/12/03 05:17:05;;;;;;;28.60;26.20;;;;;;;-4.74;100.00;97630.14;109571;1286;22302;-84
2023/12/03 05:19:33;;;;;;;25.30;23.10;;;;;;;-4.75;100.00;97634.29;109586;1282;22236;-82
2023/12/03 05:22:01;;;;;;;24.20;22.10;;;;;;;-4.74;100.00;97633.16;109567;1290;22274;-83
2023/12/03 05:24:29;;;;;;;25.80;23.70;;;;;;;-4.71;100.00;97635.55;109560;1286;22225;-83
2023/12/03 05:26:57;;;;;;;25.50;23.40;;;;;;;-4.74;100.00;97641.05;109572;1290;22207;-81
2023/12/03 05:29:26;;;;;;;24.30;22.20;;;;;;;-4.76;100.00;97648.46;109584;1289;22254;-83
2023/12/03 05:31:53;;;;;;;25.00;22.90;;;;;;;-4.77;100.00;97649.98;109574;1290;22731;-83
2023/12/03 05:34:21;;;;;;;21.40;19.60;;;;;;;-4.77;100.00;97653.44;109569;1286;22241;-85
2023/12/03 05:36:51;;;;;;;23.30;21.30;;;;;;;-4.79;100.00;97657.56;109504;1280;22852;-83
2023/12/03 05:39:21;;;;;;;25.00;22.70;;;;;;;-4.80;100.00;97661.77;109569;1290;22342;-84
2023/12/03 05:41:49;;;;;;;24.80;22.50;;;;;;;-4.79;100.00;97664.15;109581;1281;22325;-81
2023/12/03 05:44:17;;;;;;;23.10;21.00;;;;;;;-4.78;100.00;97667.10;109592;1286;22977;-84
2023/12/03 05:46:45;;;;;;;20.80;19.00;;;;;;;-4.76;100.00;97666.86;109593;1283;22366;-84
2023/12/03 05:49:13;;;;;;;20.40;18.60;;;;;;;-4.74;100.00;97670.36;109513;1283;22996;-86
2023/12/03 05:51:43;;;;;;;19.90;18.10;;;;;;;-4.70;100.00;97673.96;109579;1286;22337;-86
2023/12/03 05:54:11;;;;;;;21.50;19.50;;;;;;;-4.67;100.00;97677.92;109563;1290;22194;-86
2023/12/03 05:56:39;;;;;;;23.70;21.20;;;;;;;-4.71;100.00;97672.88;109589;1290;22342;-85
2023/12/03 05:59:07;;;;;;;21.40;19.30;;;;;;;-4.67;100.00;97688.02;109565;1283;22940;-86
2023/12/03 06:01:35;;;;;;;23.20;21.20;;;;;;;-4.65;100.00;97687.81;109564;1278;22363;-85
2023/12/03 06:04:06;;;;;;;24.10;22.10;;;;;;;-4.59;100.00;97686.52;109567;1277;22215;-86
2023/12/03 06:06:36;;;;;;;24.90;22.70;;;;;;;-4.57;100.00;97689.83;109598;1290;22231;-84
2023/12/03 06:09:04;;;;;;;25.70;23.50;;;;;;;-4.58;100.00;97691.89;109508;1287;22198;-87
2023/12/03 06:11:32;;;;;;;26.30;23.60;;;;;;;-4.57;100.00;97695.28;109594;1284;22815;-86
2023/12/03 06:14:01;;;;;;;25.80;23.20;;;;;;;-4.57;100.00;97697.39;109582;1286;22171;-84
2023/12/03 06:16:29;;;;;;;25.80;23.50;;;;;;;-4.53;100.00;97701.27;109581;1280;22380;-85
2023/12/03 06:18:57;;;;;;;27.60;24.90;;;;;;;-4.50;100.00;97703.15;109529;1290;22275;-87
2023/12/03 06:21:25;;;;;;;28.00;25.20;;;;;;;-4.50;100.00;97708.25;109572;1279;22331;-83
2023/12/03 06:23:53;;;;;;;25.00;22.50;;;;;;;-4.52;100.00;97707.44;109858;1289;21912;-81
2023/12/03 06:26:21;;;;;;;25.60;23.10;;;;;;;-4.51;100.00;97713.88;109787;1290;22656;-86
2023/12/03 06:28:49;;;;;;;26.20;23.60;;;;;;;-4.51;100.00;97710.44;109598;1276;22406;-86
2023/12/03 06:31:17;;;;;;;24.10;21.90;;;;;;;-4.47;100.00;97717.09;109581;1290;23056;-86
2023/12/03 06:33:46;;;;;;;27.80;25.20;;;;;;;-4.46;100.00;97717.73;109589;1270;22195;-84
2023/12/03 06:36:14;;;;;;;26.70;24.10;;;;;;;-4.45;100.00;97724.54;109584;1280;22226;-87
2023/12/03 06:38:42;;;;;;;30.80;24.30;;;;;;;-4.45;100.00;97723.48;109576;1279;22377;-86
2023/12/03 06:41:10;;;;;;;22.00;19.50;;;;;;;-4.46;100.00;97728.27;109573;1276;22182;-87
2023/12/03 06:43:38;;;;;;;23.50;21.10;;;;;;;-4.45;100.00;97736.27;109595;1283;22393;-87
2023/12/03 06:46:07;;;;;;;21.60;19.30;;;;;;;-4.42;100.00;97736.63;109577;1284;22117;-87
2023/12/03 06:48:35;;;;;;;19.80;18.00;;;;;;;-4.41;100.00;97741.72;109577;1279;22229;-87
2023/12/03 06:51:03;;;;;;;23.60;20.30;;;;;;;-4.47;100.00;97749.02;109578;1290;22221;-87
2023/12/03 06:53:31;;;;;;;21.00;19.00;;;;;;;-4.47;100.00;97752.70;109553;1278;22252;-87
2023/12/03 06:55:59;;;;;;;22.90;20.00;;;;;;;-4.44;100.00;97752.17;109567;1286;22286;-87
2023/12/03 06:58:27;;;;;;;20.80;18.60;;;;;;;-4.40;100.00;97754.59;109476;1285;22867;-87
2023/12/03 07:00:55;;;;;;;25.10;21.00;;;;;;;-4.41;100.00;97755.92;109575;1279;22173;-86
2023/12/03 07:03:23;;;;;;;23.70;21.30;;;;;;;-4.41;100.00;97759.48;109558;1283;23256;-88
2023/12/03 07:05:52;;;;;;;22.50;20.30;;;;;;;-4.42;100.00;97763.45;109563;1283;22185;-86
2023/12/03 07:08:20;;;;;;;21.10;17.90;;;;;;;-4.39;100.00;97760.37;109553;1280;22262;-86
2023/12/03 07:10:48;;;;;;;20.80;18.80;;;;;;;-4.37;100.00;97761.91;109562;1281;22199;-85
2023/12/03 07:13:16;;;;;;;23.80;21.30;;;;;;;-4.36;100.00;97762.18;109655;1279;22241;-84
2023/12/03 07:15:44;;;;;;;25.50;21.80;;;;;;;-4.35;100.00;97770.52;109630;1280;22197;-87
2023/12/03 07:18:12;;;;;;;21.90;19.10;;;;;;;-4.35;100.00;97769.83;109577;1279;22120;-87
2023/12/03 07:20:40;;;;;;;22.30;20.10;;;;;;;-4.31;100.00;97771.80;109669;1290;22292;-88
2023/12/03 07:23:08;;;;;;;22.20;20.00;;;;;;;-4.31;100.00;97775.33;109674;1284;22304;-88
2023/12/03 07:25:36;;;;;;;24.40;22.00;;;;;;;-4.28;100.00;97777.70;109578;1283;22516;-83
2023/12/03 07:28:04;;;;;;;28.10;25.30;;;;;;;-4.28;100.00;97783.86;109603;1290;22168;-80
2023/12/03 07:30:32;;;;;;;25.10;22.60;;;;;;;-4.28;100.00;97787.41;109641;1290;22206;-88
2023/12/03 07:33:03;;;;;;;24.40;22.20;;;;;;;-4.28;100.00;97788.19;109697;1290;22229;-88
2023/12/03 07:35:32;;;;;;;21.60;19.50;;;;;;;-4.22;100.00;97791.92;109663;1279;22229;-86
2023/12/03 07:37:59;;;;;;;21.30;19.40;;;;;;;-4.19;100.00;97796.70;109600;1280;22958;-87
2023/12/03 07:40:27;;;;;;;25.00;22.70;;;;;;;-4.19;100.00;97790.05;109581;1280;22299;-89
2023/12/03 07:42:56;;;;;;;21.50;19.40;;;;;;;-4.17;100.00;97793.18;109592;1290;22386;-85
2023/12/03 07:45:24;;;;;;;24.20;21.90;;;;;;;-4.13;100.00;97791.18;109565;1283;23146;-87
2023/12/03 07:47:52;;;;;;;23.40;21.10;;;;;;;-4.07;100.00;97791.77;109580;1286;22938;-87
2023/12/03 07:50:20;;;;;;;22.30;20.30;;;;;;;-4.03;100.00;97793.98;109578;1283;22285;-87
2023/12/03 07:52:48;;;;;;;27.10;24.40;;;;;;;-4.00;100.00;97795.84;109562;1290;22210;-87
2023/12/03 07:55:16;;;;;;;22.00;19.90;;;;;;;-3.97;100.00;97804.65;109586;1286;22967;-88
2023/12/03 07:57:44;;;;;;;24.00;21.90;;;;;;;-3.98;100.00;97801.02;109569;1284;22570;-88
2023/12/03 08:00:13;;;;;;;22.40;20.30;;;;;;;-3.97;100.00;97805.17;109589;1276;22193;-89
2023/12/03 08:02:42;;;;;;;21.90;19.80;;;;;;;-3.92;100.00;97807.18;109583;1274;22268;-87
2023/12/03 08:05:10;;;;;;;24.30;22.00;;;;;;;-3.85;100.00;97811.86;109589;1277;22318;-89
2023/12/03 08:07:38;;;;;;;24.70;22.30;;;;;;;-3.80;100.00;97815.23;109544;1286;22241;-89
2023/12/03 08:10:07;;;;;;;36.70;32.90;;;;;;;-3.77;100.00;97823.21;109552;1286;22941;-79
2023/12/03 08:12:35;;;;;;;36.50;32.40;;;;;;;-3.73;100.00;97821.25;109572;1286;22859;-84
2023/12/03 08:15:03;;;;;;;55.70;44.60;;;;;;;-3.69;100.00;97821.69;109548;1290;22277;-87
2023/12/03 08:17:31;;;;;;;119.10;66.80;;;;;;;-3.62;100.00;97829.73;109588;1290;22249;-86
2023/12/03 08:19:59;;;;;;;46.60;40.20;;;;;;;-3.56;100.00;97831.34;109601;1286;22995;-85
2023/12/03 08:22:27;;;;;;;38.90;33.50;;;;;;;-3.56;100.00;97835.84;109463;1275;22206;-86
2023/12/03 08:24:55;;;;;;;28.90;26.00;;;;;;;-3.53;100.00;97839.55;109596;1290;22223;-83
2023/12/03 08:27:24;;;;;;;40.60;36.20;;;;;;;-3.48;100.00;97840.66;109888;1290;22396;-80
2023/12/03 08:29:52;;;;;;;32.90;29.40;;;;;;;-3.46;100.00;97845.43;109894;1290;22090;-84
2023/12/03 08:32:20;;;;;;;40.00;35.70;;;;;;;-3.42;100.00;97847.53;109620;1283;22935;-86
2023/12/03 08:34:48;;;;;;;35.40;31.60;;;;;;;-3.40;100.00;97850.73;109607;1284;22309;-86
2023/12/03 08:37:16;;;;;;;35.70;31.90;;;;;;;-3.39;100.00;97856.36;109617;1283;22251;-84
2023/12/03 08:39:44;;;;;;;23.40;21.10;;;;;;;-3.35;100.00;97862.25;109451;1290;22924;-84
2023/12/03 08:42:12;;;;;;;26.80;24.30;;;;;;;-3.36;100.00;97865.55;109592;1276;22194;-85
2023/12/03 08:44:40;;;;;;;28.80;26.00;;;;;;;-3.38;100.00;97868.52;109573;1290;22259;-86
2023/12/03 08:47:08;;;;;;;29.30;26.30;;;;;;;-3.35;100.00;97871.52;109575;1283;22220;-84
2023/12/03 08:49:36;;;;;;;25.90;23.50;;;;;;;-3.30;100.00;97876.86;109569;1286;22264;-84
2023/12/03 08:52:05;;;;;;;38.70;28.40;;;;;;;-3.24;100.00;97884.05;109571;1290;22284;-83
2023/12/03 08:54:34;;;;;;;29.20;26.10;;;;;;;-3.21;100.00;97887.52;109440;1275;23574;-83
2023/12/03 08:57:02;;;;;;;31.00;27.70;;;;;;;-3.23;100.00;97887.48;109583;1279;22907;-84
2023/12/03 08:59:30;;;;;;;26.60;23.90;;;;;;;-3.21;100.00;97889.27;109574;1274;22389;-84
2023/12/03 09:01:59;;;;;;;26.70;24.00;;;;;;;-3.19;100.00;97889.05;109623;1286;22746;-84
2023/12/03 09:04:27;;;;;;;26.90;24.30;;;;;;;-3.10;100.00;97895.20;109515;1287;22986;-85
2023/12/03 09:06:56;;;;;;;27.60;25.00;;;;;;;-3.10;100.00;97898.83;109617;1286;22152;-83
2023/12/03 09:09:24;;;;;;;20.30;18.50;;;;;;;-3.10;100.00;97901.58;109590;1290;22187;-84
2023/12/03 09:11:53;;;;;;;21.60;19.60;;;;;;;-3.11;100.00;97901.86;109584;1286;23053;-84
2023/12/03 09:14:21;;;;;;;20.80;18.90;;;;;;;-3.06;100.00;97910.48;109592;1279;22215;-82
2023/12/03 09:16:49;;;;;;;25.00;22.70;;;;;;;-3.07;100.00;97907.03;109584;1290;22286;-84
2023/12/03 09:19:17;;;;;;;23.60;21.30;;;;;;;-3.07;100.00;97913.98;109579;1282;22115;-86
2023/12/03 09:21:45;;;;;;;23.10;20.80;;;;;;;-3.07;100.00;97912.75;109586;1290;22960;-85
2023/12/03 09:24:15;;;;;;;34.60;28.30;;;;;;;-3.08;100.00;97920.59;109579;1283;22190;-86
2023/12/03 09:26:45;;;;;;;32.10;28.60;;;;;;;-3.06;100.00;97921.07;109461;1289;22215;-83
2023/12/03 09:29:14;;;;;;;27.80;25.00;;;;;;;-3.06;100.00;97924.39;109439;1280;22152;-83
2023/12/03 09:31:42;;;;;;;25.30;23.00;;;;;;;-3.09;100.00;97927.93;109596;1286;22221;-84
2023/12/03 09:34:10;;;;;;;22.60;20.30;;;;;;;-3.08;100.00;97933.85;109569;1274;22262;-85
2023/12/03 09:36:38;;;;;;;29.30;26.20;;;;;;;-3.11;100.00;97936.33;109600;1283;22835;-83
2023/12/03 09:39:06;;;;;;;25.10;22.70;;;;;;;-3.10;100.00;97937.88;109565;1280;23025;-83
2023/12/03 09:41:41;;;;;;;25.50;23.20;;;;;;;-3.01;100.00;97937.21;109565;1290;22289;-84
2023/12/03 09:44:21;;;;;;;26.60;24.10;;;;;;;-2.99;100.00;97938.50;109582;1282;22478;-83
2023/12/03 09:46:53;;;;;;;23.30;21.20;;;;;;;-2.94;100.00;97944.23;109586;1289;23516;-84
2023/12/03 09:49:25;;;;;;;22.00;19.90;;;;;;;-2.85;100.00;97940.50;109562;1279;22257;-84
2023/12/03 09:51:56;;;;;;;26.60;24.10;;;;;;;-2.77;100.00;97944.67;109577;1283;22399;-83
2023/12/03 09:54:24;;;;;;;27.10;24.70;;;;;;;-2.74;100.00;97940.40;109581;1276;22191;-84
2023/12/03 09:56:56;;;;;;;24.20;22.10;;;;;;;-2.72;100.00;97936.48;109563;1279;22241;-84
2023/12/03 09:59:27;;;;;;;25.00;22.60;;;;;;;-2.70;100.00;97940.41;109570;1287;22257;-84
2023/12/03 10:01:57;;;;;;;25.00;22.40;;;;;;;-2.67;100.00;97940.84;109593;1279;22244;-83
2023/12/03 10:04:25;;;;;;;27.00;24.30;;;;;;;-2.65;100.00;97945.83;109386;1289;22205;-84
2023/12/03 10:06:57;;;;;;;28.00;25.10;;;;;;;-2.61;100.00;97948.20;109563;1279;22251;-85
2023/12/03 10:09:26;;;;;;;27.50;24.90;;;;;;;-2.60;100.00;97955.12;109569;1279;22214;-83
2023/12/03 10:11:59;;;;;;;24.10;21.80;;;;;;;-2.60;100.00;97959.47;109554;1279;22213;-81
2023/12/03 10:14:28;;;;;;;25.00;22.70;;;;;;;-2.59;100.00;97960.27;109669;1283;22456;-83
2023/12/03 10:16:56;;;;;;;26.40;23.80;;;;;;;-2.60;100.00;97966.73;109556;1290;22132;-83
2023/12/03 10:19:26;;;;;;;26.30;23.80;;;;;;;-2.63;100.00;97959.56;109505;1290;22222;-83
2023/12/03 10:21:57;;;;;;;21.20;19.30;;;;;;;-2.66;100.00;97965.27;109703;1290;22263;-83
2023/12/03 10:24:26;;;;;;;22.60;20.60;;;;;;;-2.74;100.00;97958.94;109528;1280;22327;-85
2023/12/03 10:27:00;;;;;;;21.50;19.60;;;;;;;-2.77;100.00;97959.19;109577;1284;22146;-85
2023/12/03 10:29:30;;;;;;;23.10;20.90;;;;;;;-2.71;100.00;97963.71;109577;1279;22221;-86
2023/12/03 10:31:58;;;;;;;24.00;21.90;;;;;;;-2.72;100.00;97967.90;109590;1277;22228;-84
2023/12/03 10:34:26;;;;;;;23.00;20.80;;;;;;;-2.75;100.00;97970.01;109582;1286;22304;-85
2023/12/03 10:36:54;;;;;;;22.80;20.60;;;;;;;-2.75;100.00;97968.80;109557;1288;22453;-84
2023/12/03 10:39:22;;;;;;;21.60;19.60;;;;;;;-2.72;100.00;97975.23;109592;1276;22298;-83
2023/12/03 10:41:50;;;;;;;27.60;24.90;;;;;;;-2.70;100.00;97970.27;109525;1290;22366;-83
2023/12/03 10:44:23;;;;;;;23.50;21.20;;;;;;;-2.72;100.00;97982.10;109572;1290;23000;-86
2023/12/03 10:46:51;;;;;;;24.50;22.20;;;;;;;-2.72;100.00;97977.80;109598;1286;22435;-86
2023/12/03 10:49:20;;;;;;;22.60;20.30;;;;;;;-2.70;100.00;97982.05;109616;1290;22988;-83
2023/12/03 10:51:48;;;;;;;22.90;20.80;;;;;;;-2.69;100.00;97984.02;109414;1288;22386;-85
2023/12/03 10:54:17;;;;;;;23.70;21.50;;;;;;;-2.68;100.00;97990.23;109577;1289;22211;-83
2023/12/03 10:56:49;;;;;;;20.50;18.60;;;;;;;-2.75;100.00;97993.72;109605;1290;22415;-86
2023/12/03 10:59:22;;;;;;;21.40;19.40;;;;;;;-2.78;100.00;98005.98;109575;1277;22401;-83
2023/12/03 11:01:54;;;;;;;21.40;19.40;;;;;;;-2.80;100.00;98004.77;109604;1290;22166;-86
2023/12/03 11:04:48;;;;;;;21.20;19.20;;;;;;;-2.83;100.00;98005.00;109475;1290;22472;-88
2023/12/03 11:07:20;;;;;;;25.60;23.20;;;;;;;-2.86;100.00;98010.36;109531;1283;22217;-89